sensor_id;sensor_type;location;lat;lon;timestamp;P1;durP1;ratioP1;P2;durP2;ratioP2
37069;SDS011;22984;48.862;9.320;2022-10-17T00:01:58;51.38;;;22.23;;
37069;SDS011;22984;48.862;9.320;2022-10-17T00:04:24;36.20;;;18.67;;
37069;SDS011;22984;48.862;9.320;2022-10-17T00:06:50;31.50;;;15.95;;
37069;SDS011;22984;48.862;9.320;2022-10-17T00:09:16;26.55;;;14.13;;
37069;SDS011;22984;48.862;9.320;2022-10-17T00:11:42;22.13;;;11.73;;
37069;SDS011;22984;48.862;9.320;2022-10-17T00:14:08;19.13;;;9.50;;
37069;SDS011;22984;48.862;9.320;2022-10-17T00:16:34;14.48;;;9.23;;
37069;SDS011;22984;48.862;9.320;2022-10-17T00:19:02;16.90;;;9.20;;
37069;SDS011;22984;48.862;9.320;2022-10-17T00:21:28;19.48;;;8.77;;
37069;SDS011;22984;48.862;9.320;2022-10-17T00:23:54;16.85;;;8.82;;
37069;SDS011;22984;48.862;9.320;2022-10-17T00:26:20;16.58;;;8.10;;
37069;SDS011;22984;48.862;9.320;2022-10-17T00:28:47;15.35;;;8.52;;
37069;SDS011;22984;48.862;9.320;2022-10-17T00:31:13;15.95;;;7.60;;
37069;SDS011;22984;48.862;9.320;2022-10-17T00:33:40;13.88;;;7.20;;
37069;SDS011;22984;48.862;9.320;2022-10-17T00:36:10;16.45;;;7.43;;
37069;SDS011;22984;48.862;9.320;2022-10-17T00:38:38;14.70;;;6.50;;
37069;SDS011;22984;48.862;9.320;2022-10-17T00:41:06;17.03;;;6.60;;
37069;SDS011;22984;48.862;9.320;2022-10-17T00:43:54;32.92;;;7.35;;
37069;SDS011;22984;48.862;9.320;2022-10-17T00:46:21;10.50;;;6.20;;
37069;SDS011;22984;48.862;9.320;2022-10-17T00:48:50;9.03;;;6.20;;
37069;SDS011;22984;48.862;9.320;2022-10-17T00:51:18;12.23;;;5.65;;
37069;SDS011;22984;48.862;9.320;2022-10-17T00:53:47;10.68;;;5.78;;
37069;SDS011;22984;48.862;9.320;2022-10-17T00:56:18;9.00;;;6.10;;
37069;SDS011;22984;48.862;9.320;2022-10-17T00:58:46;11.35;;;5.93;;
37069;SDS011;22984;48.862;9.320;2022-10-17T01:01:14;10.10;;;6.07;;
37069;SDS011;22984;48.862;9.320;2022-10-17T01:03:41;10.40;;;5.80;;
37069;SDS011;22984;48.862;9.320;2022-10-17T01:06:08;10.32;;;5.13;;
37069;SDS011;22984;48.862;9.320;2022-10-17T01:08:35;12.27;;;4.90;;
37069;SDS011;22984;48.862;9.320;2022-10-17T01:18:42;9.73;;;5.03;;
37069;SDS011;22984;48.862;9.320;2022-10-17T01:21:22;12.70;;;5.35;;
37069;SDS011;22984;48.862;9.320;2022-10-17T01:23:59;14.18;;;5.13;;
37069;SDS011;22984;48.862;9.320;2022-10-17T01:26:35;13.85;;;4.90;;
37069;SDS011;22984;48.862;9.320;2022-10-17T01:29:23;12.88;;;5.50;;
37069;SDS011;22984;48.862;9.320;2022-10-17T01:32:05;10.13;;;4.90;;
37069;SDS011;22984;48.862;9.320;2022-10-17T01:34:39;10.35;;;5.03;;
37069;SDS011;22984;48.862;9.320;2022-10-17T01:40:00;10.23;;;5.60;;
37069;SDS011;22984;48.862;9.320;2022-10-17T01:45:00;10.23;;;5.38;;
37069;SDS011;22984;48.862;9.320;2022-10-17T01:47:29;15.32;;;5.68;;
37069;SDS011;22984;48.862;9.320;2022-10-17T01:49:58;18.83;;;7.60;;
37069;SDS011;22984;48.862;9.320;2022-10-17T01:52:29;19.40;;;7.13;;
37069;SDS011;22984;48.862;9.320;2022-10-17T01:55:09;15.90;;;6.57;;
37069;SDS011;22984;48.862;9.320;2022-10-17T01:57:39;14.25;;;6.15;;
37069;SDS011;22984;48.862;9.320;2022-10-17T02:00:07;20.83;;;6.95;;
37069;SDS011;22984;48.862;9.320;2022-10-17T02:02:37;18.30;;;7.68;;
37069;SDS011;22984;48.862;9.320;2022-10-17T02:05:05;15.30;;;8.10;;
37069;SDS011;22984;48.862;9.320;2022-10-17T02:07:33;15.57;;;8.43;;
37069;SDS011;22984;48.862;9.320;2022-10-17T02:09:59;12.60;;;6.88;;
37069;SDS011;22984;48.862;9.320;2022-10-17T02:15:32;12.70;;;6.30;;
37069;SDS011;22984;48.862;9.320;2022-10-17T02:18:14;10.07;;;6.43;;
37069;SDS011;22984;48.862;9.320;2022-10-17T02:20:49;16.67;;;5.25;;
37069;SDS011;22984;48.862;9.320;2022-10-17T02:23:19;7.05;;;5.47;;
37069;SDS011;22984;48.862;9.320;2022-10-17T02:28:56;18.40;;;7.82;;
37069;SDS011;22984;48.862;9.320;2022-10-17T02:31:35;22.60;;;8.60;;
37069;SDS011;22984;48.862;9.320;2022-10-17T02:34:06;15.83;;;7.37;;
37069;SDS011;22984;48.862;9.320;2022-10-17T02:36:35;16.67;;;7.78;;
37069;SDS011;22984;48.862;9.320;2022-10-17T02:39:03;14.23;;;8.10;;
37069;SDS011;22984;48.862;9.320;2022-10-17T02:41:30;15.07;;;8.52;;
37069;SDS011;22984;48.862;9.320;2022-10-17T02:43:56;22.13;;;9.43;;
37069;SDS011;22984;48.862;9.320;2022-10-17T02:46:22;15.05;;;8.95;;
37069;SDS011;22984;48.862;9.320;2022-10-17T02:48:53;14.25;;;8.30;;
37069;SDS011;22984;48.862;9.320;2022-10-17T02:56:18;19.90;;;9.07;;
37069;SDS011;22984;48.862;9.320;2022-10-17T02:58:45;16.50;;;8.18;;
37069;SDS011;22984;48.862;9.320;2022-10-17T03:01:12;30.63;;;11.00;;
37069;SDS011;22984;48.862;9.320;2022-10-17T03:03:38;17.40;;;9.80;;
37069;SDS011;22984;48.862;9.320;2022-10-17T03:06:05;16.25;;;8.40;;
37069;SDS011;22984;48.862;9.320;2022-10-17T03:08:31;16.80;;;8.05;;
37069;SDS011;22984;48.862;9.320;2022-10-17T03:10:57;20.52;;;9.70;;
37069;SDS011;22984;48.862;9.320;2022-10-17T03:13:23;17.00;;;7.80;;
37069;SDS011;22984;48.862;9.320;2022-10-17T03:15:49;18.23;;;9.48;;
37069;SDS011;22984;48.862;9.320;2022-10-17T03:18:15;19.80;;;9.23;;
37069;SDS011;22984;48.862;9.320;2022-10-17T03:20:41;17.80;;;8.77;;
37069;SDS011;22984;48.862;9.320;2022-10-17T03:23:07;19.50;;;10.25;;
37069;SDS011;22984;48.862;9.320;2022-10-17T03:25:33;14.73;;;10.00;;
37069;SDS011;22984;48.862;9.320;2022-10-17T03:27:59;16.10;;;9.38;;
37069;SDS011;22984;48.862;9.320;2022-10-17T03:30:25;17.58;;;8.18;;
37069;SDS011;22984;48.862;9.320;2022-10-17T03:32:51;20.90;;;8.40;;
37069;SDS011;22984;48.862;9.320;2022-10-17T03:35:17;14.35;;;7.63;;
37069;SDS011;22984;48.862;9.320;2022-10-17T03:37:43;13.55;;;6.95;;
37069;SDS011;22984;48.862;9.320;2022-10-17T03:40:09;14.63;;;7.15;;
37069;SDS011;22984;48.862;9.320;2022-10-17T03:42:36;21.23;;;7.85;;
37069;SDS011;22984;48.862;9.320;2022-10-17T03:45:02;16.17;;;7.82;;
37069;SDS011;22984;48.862;9.320;2022-10-17T03:47:28;20.20;;;9.00;;
37069;SDS011;22984;48.862;9.320;2022-10-17T03:49:54;16.00;;;7.97;;
37069;SDS011;22984;48.862;9.320;2022-10-17T03:52:20;12.05;;;7.82;;
37069;SDS011;22984;48.862;9.320;2022-10-17T03:54:46;14.32;;;8.02;;
37069;SDS011;22984;48.862;9.320;2022-10-17T03:57:12;21.57;;;7.47;;
37069;SDS011;22984;48.862;9.320;2022-10-17T03:59:38;14.13;;;7.65;;
37069;SDS011;22984;48.862;9.320;2022-10-17T04:02:04;15.02;;;9.30;;
37069;SDS011;22984;48.862;9.320;2022-10-17T04:04:30;15.95;;;8.82;;
37069;SDS011;22984;48.862;9.320;2022-10-17T04:06:56;25.77;;;11.15;;
37069;SDS011;22984;48.862;9.320;2022-10-17T04:09:22;19.17;;;9.03;;
37069;SDS011;22984;48.862;9.320;2022-10-17T04:11:48;14.40;;;7.18;;
37069;SDS011;22984;48.862;9.320;2022-10-17T04:14:14;17.23;;;6.03;;
37069;SDS011;22984;48.862;9.320;2022-10-17T04:16:40;17.50;;;6.65;;
37069;SDS011;22984;48.862;9.320;2022-10-17T04:19:06;16.73;;;5.77;;
37069;SDS011;22984;48.862;9.320;2022-10-17T04:21:32;25.10;;;5.70;;
37069;SDS011;22984;48.862;9.320;2022-10-17T04:23:58;8.98;;;6.10;;
37069;SDS011;22984;48.862;9.320;2022-10-17T04:26:25;10.80;;;5.50;;
37069;SDS011;22984;48.862;9.320;2022-10-17T04:28:51;21.13;;;7.07;;
37069;SDS011;22984;48.862;9.320;2022-10-17T04:31:18;14.98;;;5.75;;
37069;SDS011;22984;48.862;9.320;2022-10-17T04:33:47;7.20;;;6.30;;
37069;SDS011;22984;48.862;9.320;2022-10-17T04:36:14;13.43;;;5.95;;
37069;SDS011;22984;48.862;9.320;2022-10-17T04:38:40;16.08;;;6.00;;
37069;SDS011;22984;48.862;9.320;2022-10-17T04:41:08;15.30;;;6.07;;
37069;SDS011;22984;48.862;9.320;2022-10-17T04:43:35;14.45;;;5.75;;
37069;SDS011;22984;48.862;9.320;2022-10-17T04:46:02;9.00;;;5.15;;
37069;SDS011;22984;48.862;9.320;2022-10-17T04:48:28;8.68;;;3.83;;
37069;SDS011;22984;48.862;9.320;2022-10-17T04:50:55;11.82;;;3.90;;
37069;SDS011;22984;48.862;9.320;2022-10-17T04:53:22;12.75;;;4.75;;
37069;SDS011;22984;48.862;9.320;2022-10-17T04:55:48;10.63;;;4.32;;
37069;SDS011;22984;48.862;9.320;2022-10-17T04:58:15;8.98;;;4.03;;
37069;SDS011;22984;48.862;9.320;2022-10-17T05:00:41;9.20;;;4.45;;
37069;SDS011;22984;48.862;9.320;2022-10-17T05:03:07;13.00;;;4.68;;
37069;SDS011;22984;48.862;9.320;2022-10-17T05:05:35;11.98;;;4.78;;
37069;SDS011;22984;48.862;9.320;2022-10-17T05:08:02;13.13;;;5.78;;
37069;SDS011;22984;48.862;9.320;2022-10-17T05:10:29;11.73;;;5.10;;
37069;SDS011;22984;48.862;9.320;2022-10-17T05:12:55;9.88;;;4.47;;
37069;SDS011;22984;48.862;9.320;2022-10-17T05:15:21;14.90;;;4.10;;
37069;SDS011;22984;48.862;9.320;2022-10-17T05:17:47;10.27;;;4.43;;
37069;SDS011;22984;48.862;9.320;2022-10-17T05:20:13;10.45;;;4.13;;
37069;SDS011;22984;48.862;9.320;2022-10-17T05:22:39;4.25;;;3.60;;
37069;SDS011;22984;48.862;9.320;2022-10-17T05:25:05;9.50;;;4.30;;
37069;SDS011;22984;48.862;9.320;2022-10-17T05:27:31;11.00;;;4.57;;
37069;SDS011;22984;48.862;9.320;2022-10-17T05:29:57;10.73;;;4.68;;
37069;SDS011;22984;48.862;9.320;2022-10-17T05:32:23;15.55;;;4.05;;
37069;SDS011;22984;48.862;9.320;2022-10-17T05:34:49;15.45;;;4.85;;
37069;SDS011;22984;48.862;9.320;2022-10-17T05:37:15;14.20;;;4.05;;
37069;SDS011;22984;48.862;9.320;2022-10-17T05:39:41;8.02;;;3.92;;
37069;SDS011;22984;48.862;9.320;2022-10-17T05:42:07;9.05;;;4.07;;
37069;SDS011;22984;48.862;9.320;2022-10-17T05:44:33;9.95;;;4.13;;
37069;SDS011;22984;48.862;9.320;2022-10-17T05:46:59;9.43;;;4.05;;
37069;SDS011;22984;48.862;9.320;2022-10-17T05:49:26;9.87;;;4.37;;
37069;SDS011;22984;48.862;9.320;2022-10-17T05:51:52;8.43;;;4.03;;
37069;SDS011;22984;48.862;9.320;2022-10-17T05:54:18;7.50;;;4.25;;
37069;SDS011;22984;48.862;9.320;2022-10-17T05:56:44;11.85;;;3.95;;
37069;SDS011;22984;48.862;9.320;2022-10-17T05:59:10;10.50;;;4.47;;
37069;SDS011;22984;48.862;9.320;2022-10-17T06:01:36;6.80;;;3.80;;
37069;SDS011;22984;48.862;9.320;2022-10-17T06:04:02;12.73;;;4.53;;
37069;SDS011;22984;48.862;9.320;2022-10-17T06:06:28;13.73;;;5.43;;
37069;SDS011;22984;48.862;9.320;2022-10-17T06:08:54;21.38;;;5.03;;
37069;SDS011;22984;48.862;9.320;2022-10-17T06:11:20;18.33;;;6.65;;
37069;SDS011;22984;48.862;9.320;2022-10-17T06:13:46;14.70;;;7.35;;
37069;SDS011;22984;48.862;9.320;2022-10-17T06:16:12;11.55;;;5.90;;
37069;SDS011;22984;48.862;9.320;2022-10-17T06:18:38;12.77;;;4.53;;
37069;SDS011;22984;48.862;9.320;2022-10-17T06:21:08;12.55;;;5.30;;
37069;SDS011;22984;48.862;9.320;2022-10-17T06:23:34;8.60;;;4.33;;
37069;SDS011;22984;48.862;9.320;2022-10-17T06:26:00;17.08;;;5.10;;
37069;SDS011;22984;48.862;9.320;2022-10-17T06:28:27;9.67;;;5.53;;
37069;SDS011;22984;48.862;9.320;2022-10-17T06:30:53;7.15;;;5.10;;
37069;SDS011;22984;48.862;9.320;2022-10-17T06:33:19;7.53;;;4.80;;
37069;SDS011;22984;48.862;9.320;2022-10-17T06:35:55;11.57;;;4.50;;
37069;SDS011;22984;48.862;9.320;2022-10-17T06:38:21;6.55;;;4.32;;
37069;SDS011;22984;48.862;9.320;2022-10-17T06:40:47;9.23;;;4.15;;
37069;SDS011;22984;48.862;9.320;2022-10-17T06:43:13;4.70;;;2.75;;
37069;SDS011;22984;48.862;9.320;2022-10-17T06:45:40;5.77;;;3.00;;
37069;SDS011;22984;48.862;9.320;2022-10-17T06:48:06;10.10;;;2.80;;
37069;SDS011;22984;48.862;9.320;2022-10-17T06:50:33;5.82;;;2.67;;
37069;SDS011;22984;48.862;9.320;2022-10-17T06:52:59;7.95;;;2.55;;
37069;SDS011;22984;48.862;9.320;2022-10-17T06:55:25;5.10;;;2.45;;
37069;SDS011;22984;48.862;9.320;2022-10-17T06:57:53;14.35;;;4.55;;
37069;SDS011;22984;48.862;9.320;2022-10-17T07:00:19;8.65;;;4.70;;
37069;SDS011;22984;48.862;9.320;2022-10-17T07:02:47;9.55;;;4.78;;
37069;SDS011;22984;48.862;9.320;2022-10-17T07:05:13;7.00;;;4.13;;
37069;SDS011;22984;48.862;9.320;2022-10-17T07:07:39;19.10;;;5.15;;
37069;SDS011;22984;48.862;9.320;2022-10-17T07:10:05;10.63;;;4.82;;
37069;SDS011;22984;48.862;9.320;2022-10-17T07:12:34;9.95;;;4.07;;
37069;SDS011;22984;48.862;9.320;2022-10-17T07:15:00;11.85;;;4.10;;
37069;SDS011;22984;48.862;9.320;2022-10-17T07:17:28;11.68;;;4.03;;
37069;SDS011;22984;48.862;9.320;2022-10-17T07:19:54;10.82;;;3.47;;
37069;SDS011;22984;48.862;9.320;2022-10-17T07:22:20;6.25;;;3.55;;
37069;SDS011;22984;48.862;9.320;2022-10-17T07:24:46;10.60;;;4.32;;
37069;SDS011;22984;48.862;9.320;2022-10-17T07:27:13;7.78;;;3.58;;
37069;SDS011;22984;48.862;9.320;2022-10-17T07:29:39;10.82;;;3.42;;
37069;SDS011;22984;48.862;9.320;2022-10-17T07:32:05;5.78;;;2.72;;
37069;SDS011;22984;48.862;9.320;2022-10-17T07:34:33;8.95;;;2.13;;
37069;SDS011;22984;48.862;9.320;2022-10-17T07:36:59;8.40;;;2.55;;
37069;SDS011;22984;48.862;9.320;2022-10-17T07:39:25;10.00;;;2.47;;
37069;SDS011;22984;48.862;9.320;2022-10-17T07:41:51;10.68;;;2.10;;
37069;SDS011;22984;48.862;9.320;2022-10-17T07:44:17;9.38;;;2.53;;
37069;SDS011;22984;48.862;9.320;2022-10-17T07:46:43;5.55;;;2.10;;
37069;SDS011;22984;48.862;9.320;2022-10-17T07:49:09;7.17;;;2.20;;
37069;SDS011;22984;48.862;9.320;2022-10-17T07:51:35;7.55;;;2.28;;
37069;SDS011;22984;48.862;9.320;2022-10-17T07:54:01;8.40;;;2.03;;
37069;SDS011;22984;48.862;9.320;2022-10-17T07:56:29;5.65;;;1.83;;
37069;SDS011;22984;48.862;9.320;2022-10-17T07:58:55;6.55;;;2.40;;
37069;SDS011;22984;48.862;9.320;2022-10-17T08:01:22;7.22;;;2.00;;
37069;SDS011;22984;48.862;9.320;2022-10-17T08:03:49;9.73;;;2.45;;
37069;SDS011;22984;48.862;9.320;2022-10-17T08:06:15;8.80;;;1.80;;
37069;SDS011;22984;48.862;9.320;2022-10-17T08:08:42;6.40;;;2.00;;
37069;SDS011;22984;48.862;9.320;2022-10-17T08:11:10;3.97;;;2.00;;
37069;SDS011;22984;48.862;9.320;2022-10-17T08:13:36;8.50;;;2.00;;
37069;SDS011;22984;48.862;9.320;2022-10-17T08:16:04;5.78;;;1.77;;
37069;SDS011;22984;48.862;9.320;2022-10-17T08:18:34;8.20;;;2.25;;
37069;SDS011;22984;48.862;9.320;2022-10-17T08:21:01;6.87;;;1.73;;
37069;SDS011;22984;48.862;9.320;2022-10-17T08:23:30;6.75;;;1.63;;
37069;SDS011;22984;48.862;9.320;2022-10-17T08:25:59;7.78;;;1.40;;
37069;SDS011;22984;48.862;9.320;2022-10-17T08:28:25;5.25;;;1.60;;
37069;SDS011;22984;48.862;9.320;2022-10-17T08:30:51;9.05;;;2.08;;
37069;SDS011;22984;48.862;9.320;2022-10-17T08:33:17;4.88;;;1.65;;
37069;SDS011;22984;48.862;9.320;2022-10-17T08:35:43;6.88;;;1.83;;
37069;SDS011;22984;48.862;9.320;2022-10-17T08:38:09;4.53;;;1.60;;
37069;SDS011;22984;48.862;9.320;2022-10-17T08:40:35;4.83;;;1.47;;
37069;SDS011;22984;48.862;9.320;2022-10-17T08:45:44;2.88;;;1.40;;
37069;SDS011;22984;48.862;9.320;2022-10-17T08:48:12;3.95;;;1.48;;
37069;SDS011;22984;48.862;9.320;2022-10-17T08:50:41;7.07;;;1.90;;
37069;SDS011;22984;48.862;9.320;2022-10-17T08:55:47;7.03;;;1.30;;
37069;SDS011;22984;48.862;9.320;2022-10-17T09:00:41;6.78;;;1.30;;
37069;SDS011;22984;48.862;9.320;2022-10-17T09:03:20;7.20;;;1.20;;
37069;SDS011;22984;48.862;9.320;2022-10-17T09:05:52;4.78;;;1.40;;
37069;SDS011;22984;48.862;9.320;2022-10-17T09:08:43;8.90;;;1.30;;
37069;SDS011;22984;48.862;9.320;2022-10-17T09:11:41;7.60;;;1.40;;
37069;SDS011;22984;48.862;9.320;2022-10-17T09:14:06;3.20;;;1.25;;
37069;SDS011;22984;48.862;9.320;2022-10-17T09:22:18;3.97;;;1.30;;
37069;SDS011;22984;48.862;9.320;2022-10-17T09:27:10;5.60;;;0.98;;
37069;SDS011;22984;48.862;9.320;2022-10-17T09:29:40;4.65;;;1.63;;
37069;SDS011;22984;48.862;9.320;2022-10-17T09:32:13;5.35;;;1.30;;
37069;SDS011;22984;48.862;9.320;2022-10-17T09:34:41;3.70;;;1.05;;
37069;SDS011;22984;48.862;9.320;2022-10-17T09:37:11;9.60;;;1.00;;
37069;SDS011;22984;48.862;9.320;2022-10-17T09:39:38;6.68;;;1.27;;
37069;SDS011;22984;48.862;9.320;2022-10-17T09:42:05;4.53;;;1.25;;
37069;SDS011;22984;48.862;9.320;2022-10-17T09:45:18;6.68;;;1.08;;
37069;SDS011;22984;48.862;9.320;2022-10-17T09:47:25;5.90;;;1.00;;
37069;SDS011;22984;48.862;9.320;2022-10-17T09:49:53;5.13;;;1.00;;
37069;SDS011;22984;48.862;9.320;2022-10-17T09:52:21;5.10;;;1.15;;
37069;SDS011;22984;48.862;9.320;2022-10-17T09:54:51;2.75;;;1.20;;
37069;SDS011;22984;48.862;9.320;2022-10-17T09:57:19;8.75;;;1.08;;
37069;SDS011;22984;48.862;9.320;2022-10-17T09:59:59;5.25;;;1.20;;
37069;SDS011;22984;48.862;9.320;2022-10-17T10:02:26;3.65;;;1.20;;
37069;SDS011;22984;48.862;9.320;2022-10-17T10:07:18;8.40;;;1.20;;
37069;SDS011;22984;48.862;9.320;2022-10-17T10:09:45;4.20;;;1.30;;
37069;SDS011;22984;48.862;9.320;2022-10-17T10:12:16;3.72;;;1.17;;
37069;SDS011;22984;48.862;9.320;2022-10-17T10:14:43;6.65;;;1.20;;
37069;SDS011;22984;48.862;9.320;2022-10-17T10:19:55;2.30;;;1.10;;
37069;SDS011;22984;48.862;9.320;2022-10-17T10:22:21;5.85;;;1.60;;
37069;SDS011;22984;48.862;9.320;2022-10-17T10:27:32;3.83;;;1.30;;
37069;SDS011;22984;48.862;9.320;2022-10-17T10:29:59;7.40;;;1.30;;
37069;SDS011;22984;48.862;9.320;2022-10-17T10:32:26;4.85;;;1.00;;
37069;SDS011;22984;48.862;9.320;2022-10-17T10:39:52;8.57;;;1.40;;
37069;SDS011;22984;48.862;9.320;2022-10-17T10:42:26;5.40;;;1.25;;
37069;SDS011;22984;48.862;9.320;2022-10-17T10:44:54;2.28;;;1.30;;
37069;SDS011;22984;48.862;9.320;2022-10-17T10:47:27;4.53;;;1.05;;
37069;SDS011;22984;48.862;9.320;2022-10-17T10:50:06;3.35;;;1.17;;
37069;SDS011;22984;48.862;9.320;2022-10-17T10:52:36;10.68;;;1.50;;
37069;SDS011;22984;48.862;9.320;2022-10-17T10:57:50;3.50;;;1.02;;
37069;SDS011;22984;48.862;9.320;2022-10-17T11:00:20;3.38;;;1.30;;
37069;SDS011;22984;48.862;9.320;2022-10-17T11:02:53;8.07;;;1.05;;
37069;SDS011;22984;48.862;9.320;2022-10-17T11:08:14;3.53;;;1.13;;
37069;SDS011;22984;48.862;9.320;2022-10-17T11:13:26;5.63;;;0.90;;
37069;SDS011;22984;48.862;9.320;2022-10-17T11:23:43;2.67;;;0.93;;
37069;SDS011;22984;48.862;9.320;2022-10-17T11:26:12;3.35;;;1.25;;
37069;SDS011;22984;48.862;9.320;2022-10-17T11:28:40;2.55;;;0.82;;
37069;SDS011;22984;48.862;9.320;2022-10-17T11:31:08;6.75;;;1.08;;
37069;SDS011;22984;48.862;9.320;2022-10-17T11:36:03;2.22;;;0.90;;
37069;SDS011;22984;48.862;9.320;2022-10-17T11:38:41;4.25;;;0.90;;
37069;SDS011;22984;48.862;9.320;2022-10-17T11:41:11;7.13;;;0.95;;
37069;SDS011;22984;48.862;9.320;2022-10-17T11:46:14;3.30;;;1.10;;
37069;SDS011;22984;48.862;9.320;2022-10-17T11:51:20;8.18;;;1.02;;
37069;SDS011;22984;48.862;9.320;2022-10-17T11:53:53;4.47;;;1.00;;
37069;SDS011;22984;48.862;9.320;2022-10-17T11:56:25;2.35;;;1.00;;
37069;SDS011;22984;48.862;9.320;2022-10-17T11:58:56;3.92;;;0.85;;
37069;SDS011;22984;48.862;9.320;2022-10-17T12:01:34;5.07;;;0.75;;
37069;SDS011;22984;48.862;9.320;2022-10-17T12:06:58;3.78;;;1.27;;
37069;SDS011;22984;48.862;9.320;2022-10-17T12:11:59;6.03;;;0.80;;
37069;SDS011;22984;48.862;9.320;2022-10-17T12:17:52;6.85;;;1.20;;
37069;SDS011;22984;48.862;9.320;2022-10-17T12:20:12;8.65;;;1.30;;
37069;SDS011;22984;48.862;9.320;2022-10-17T12:22:45;5.43;;;1.00;;
37069;SDS011;22984;48.862;9.320;2022-10-17T12:25:15;6.25;;;1.33;;
37069;SDS011;22984;48.862;9.320;2022-10-17T12:27:43;4.97;;;1.10;;
37069;SDS011;22984;48.862;9.320;2022-10-17T12:32:53;6.13;;;1.10;;
37069;SDS011;22984;48.862;9.320;2022-10-17T12:35:21;5.78;;;1.30;;
37069;SDS011;22984;48.862;9.320;2022-10-17T12:42:58;9.35;;;1.50;;
37069;SDS011;22984;48.862;9.320;2022-10-17T12:48:10;6.55;;;1.38;;
37069;SDS011;22984;48.862;9.320;2022-10-17T12:53:21;5.68;;;2.17;;
37069;SDS011;22984;48.862;9.320;2022-10-17T12:55:48;6.00;;;1.30;;
37069;SDS011;22984;48.862;9.320;2022-10-17T12:58:15;9.73;;;1.45;;
37069;SDS011;22984;48.862;9.320;2022-10-17T13:03:17;2.72;;;1.00;;
37069;SDS011;22984;48.862;9.320;2022-10-17T13:05:49;6.63;;;1.20;;
37069;SDS011;22984;48.862;9.320;2022-10-17T13:08:51;3.15;;;1.10;;
37069;SDS011;22984;48.862;9.320;2022-10-17T13:11:08;2.73;;;1.13;;
37069;SDS011;22984;48.862;9.320;2022-10-17T13:13:45;4.28;;;1.00;;
37069;SDS011;22984;48.862;9.320;2022-10-17T13:16:29;3.90;;;1.02;;
37069;SDS011;22984;48.862;9.320;2022-10-17T13:18:55;3.28;;;1.10;;
37069;SDS011;22984;48.862;9.320;2022-10-17T13:21:21;2.10;;;1.25;;
37069;SDS011;22984;48.862;9.320;2022-10-17T13:23:47;4.13;;;1.08;;
37069;SDS011;22984;48.862;9.320;2022-10-17T13:26:19;3.50;;;1.20;;
37069;SDS011;22984;48.862;9.320;2022-10-17T13:29:31;5.40;;;1.63;;
37069;SDS011;22984;48.862;9.320;2022-10-17T13:31:33;6.30;;;1.20;;
37069;SDS011;22984;48.862;9.320;2022-10-17T13:34:00;6.22;;;1.30;;
37069;SDS011;22984;48.862;9.320;2022-10-17T13:36:26;3.25;;;1.20;;
37069;SDS011;22984;48.862;9.320;2022-10-17T13:38:53;5.45;;;1.60;;
37069;SDS011;22984;48.862;9.320;2022-10-17T13:41:23;5.13;;;1.98;;
37069;SDS011;22984;48.862;9.320;2022-10-17T13:43:50;8.45;;;1.38;;
37069;SDS011;22984;48.862;9.320;2022-10-17T13:46:35;5.93;;;1.40;;
37069;SDS011;22984;48.862;9.320;2022-10-17T13:51:49;3.90;;;1.20;;
37069;SDS011;22984;48.862;9.320;2022-10-17T13:54:16;5.15;;;1.23;;
37069;SDS011;22984;48.862;9.320;2022-10-17T13:56:42;4.07;;;1.13;;
37069;SDS011;22984;48.862;9.320;2022-10-17T13:59:17;4.70;;;1.25;;
37069;SDS011;22984;48.862;9.320;2022-10-17T14:01:46;5.53;;;1.33;;
37069;SDS011;22984;48.862;9.320;2022-10-17T14:04:14;3.60;;;1.37;;
37069;SDS011;22984;48.862;9.320;2022-10-17T14:06:43;6.00;;;1.60;;
37069;SDS011;22984;48.862;9.320;2022-10-17T14:09:20;6.13;;;1.23;;
37069;SDS011;22984;48.862;9.320;2022-10-17T14:11:55;5.40;;;1.40;;
37069;SDS011;22984;48.862;9.320;2022-10-17T14:14:22;4.45;;;1.30;;
37069;SDS011;22984;48.862;9.320;2022-10-17T14:16:50;4.30;;;1.23;;
37069;SDS011;22984;48.862;9.320;2022-10-17T14:19:26;3.17;;;1.40;;
37069;SDS011;22984;48.862;9.320;2022-10-17T14:21:54;4.13;;;1.20;;
37069;SDS011;22984;48.862;9.320;2022-10-17T14:26:57;5.78;;;1.33;;
37069;SDS011;22984;48.862;9.320;2022-10-17T14:31:55;4.80;;;1.33;;
37069;SDS011;22984;48.862;9.320;2022-10-17T14:34:23;8.52;;;1.30;;
37069;SDS011;22984;48.862;9.320;2022-10-17T14:36:50;3.58;;;1.10;;
37069;SDS011;22984;48.862;9.320;2022-10-17T14:39:21;7.53;;;1.73;;
37069;SDS011;22984;48.862;9.320;2022-10-17T14:41:47;4.55;;;1.40;;
37069;SDS011;22984;48.862;9.320;2022-10-17T14:44:35;7.18;;;1.65;;
37069;SDS011;22984;48.862;9.320;2022-10-17T14:47:03;5.88;;;1.70;;
37069;SDS011;22984;48.862;9.320;2022-10-17T14:49:35;3.80;;;1.43;;
37069;SDS011;22984;48.862;9.320;2022-10-17T14:52:08;6.50;;;1.63;;
37069;SDS011;22984;48.862;9.320;2022-10-17T14:54:34;16.58;;;1.65;;
37069;SDS011;22984;48.862;9.320;2022-10-17T14:57:07;7.80;;;1.63;;
37069;SDS011;22984;48.862;9.320;2022-10-17T14:59:33;8.35;;;1.85;;
37069;SDS011;22984;48.862;9.320;2022-10-17T15:02:00;2.65;;;1.48;;
37069;SDS011;22984;48.862;9.320;2022-10-17T15:04:26;7.30;;;2.13;;
37069;SDS011;22984;48.862;9.320;2022-10-17T15:06:55;5.35;;;1.48;;
37069;SDS011;22984;48.862;9.320;2022-10-17T15:09:21;8.13;;;1.60;;
37069;SDS011;22984;48.862;9.320;2022-10-17T15:11:47;10.52;;;1.70;;
37069;SDS011;22984;48.862;9.320;2022-10-17T15:14:14;3.60;;;1.00;;
37069;SDS011;22984;48.862;9.320;2022-10-17T15:16:40;7.80;;;1.30;;
37069;SDS011;22984;48.862;9.320;2022-10-17T15:19:06;3.10;;;1.27;;
37069;SDS011;22984;48.862;9.320;2022-10-17T15:21:32;8.10;;;1.63;;
37069;SDS011;22984;48.862;9.320;2022-10-17T15:23:58;2.67;;;1.02;;
37069;SDS011;22984;48.862;9.320;2022-10-17T15:26:29;4.50;;;1.48;;
37069;SDS011;22984;48.862;9.320;2022-10-17T15:28:56;5.88;;;1.17;;
37069;SDS011;22984;48.862;9.320;2022-10-17T15:31:23;4.60;;;1.20;;
37069;SDS011;22984;48.862;9.320;2022-10-17T15:33:50;3.70;;;1.73;;
37069;SDS011;22984;48.862;9.320;2022-10-17T15:36:26;8.52;;;1.83;;
37069;SDS011;22984;48.862;9.320;2022-10-17T15:38:53;4.35;;;1.10;;
37069;SDS011;22984;48.862;9.320;2022-10-17T15:41:20;3.00;;;1.58;;
37069;SDS011;22984;48.862;9.320;2022-10-17T15:43:47;6.75;;;1.80;;
37069;SDS011;22984;48.862;9.320;2022-10-17T15:46:15;3.57;;;1.40;;
37069;SDS011;22984;48.862;9.320;2022-10-17T15:48:41;5.95;;;1.20;;
37069;SDS011;22984;48.862;9.320;2022-10-17T15:51:07;10.30;;;1.83;;
37069;SDS011;22984;48.862;9.320;2022-10-17T15:53:34;5.90;;;1.67;;
37069;SDS011;22984;48.862;9.320;2022-10-17T15:56:00;8.20;;;1.90;;
37069;SDS011;22984;48.862;9.320;2022-10-17T15:58:28;5.10;;;1.70;;
37069;SDS011;22984;48.862;9.320;2022-10-17T16:00:57;7.97;;;2.25;;
37069;SDS011;22984;48.862;9.320;2022-10-17T16:03:23;4.15;;;1.95;;
37069;SDS011;22984;48.862;9.320;2022-10-17T16:05:49;4.57;;;1.75;;
37069;SDS011;22984;48.862;9.320;2022-10-17T16:08:15;6.65;;;2.20;;
37069;SDS011;22984;48.862;9.320;2022-10-17T16:10:41;8.35;;;2.10;;
37069;SDS011;22984;48.862;9.320;2022-10-17T16:13:10;8.25;;;2.30;;
37069;SDS011;22984;48.862;9.320;2022-10-17T16:15:38;8.50;;;2.05;;
37069;SDS011;22984;48.862;9.320;2022-10-17T16:18:04;4.18;;;2.10;;
37069;SDS011;22984;48.862;9.320;2022-10-17T16:20:30;9.40;;;2.00;;
37069;SDS011;22984;48.862;9.320;2022-10-17T16:22:56;4.07;;;1.80;;
37069;SDS011;22984;48.862;9.320;2022-10-17T16:25:26;6.10;;;2.08;;
37069;SDS011;22984;48.862;9.320;2022-10-17T16:27:53;4.78;;;2.33;;
37069;SDS011;22984;48.862;9.320;2022-10-17T16:30:20;6.93;;;2.42;;
37069;SDS011;22984;48.862;9.320;2022-10-17T16:32:46;5.65;;;2.17;;
37069;SDS011;22984;48.862;9.320;2022-10-17T16:35:20;9.82;;;2.45;;
37069;SDS011;22984;48.862;9.320;2022-10-17T16:37:46;8.48;;;2.75;;
37069;SDS011;22984;48.862;9.320;2022-10-17T16:40:12;7.43;;;2.45;;